TimeCST,TemperatureF,Dew PointF,Humidity,Sea Level PressureIn,VisibilityMPH,Wind Direction,Wind SpeedMPH,Gust SpeedMPH,PrecipitationIn,Events,Conditions,WindDirDegrees,DateUTC
12:53 AM,61.0,39.0,44,30.34,10.0,NNW,10.4,-,N/A,,Overcast,340,2012-11-13 06:53:00
1:53 AM,61.0,41.0,48,30.34,10.0,NNW,11.5,-,N/A,,Mostly Cloudy,340,2012-11-13 07:53:00
2:53 AM,60.1,41.0,49,30.31,10.0,NNW,10.4,18.4,N/A,,Overcast,340,2012-11-13 08:53:00
3:53 AM,59.0,42.1,53,30.29,10.0,NNW,12.7,-,N/A,,Clear,340,2012-11-13 09:53:00
4:53 AM,60.1,42.1,51,30.30,10.0,NNW,13.8,18.4,N/A,,Overcast,330,2012-11-13 10:53:00
5:53 AM,59.0,43.0,55,30.29,10.0,North,9.2,-,N/A,,Overcast,350,2012-11-13 11:53:00
6:53 AM,60.1,45.0,57,30.31,10.0,NNW,9.2,-,N/A,,Overcast,340,2012-11-13 12:53:00
7:53 AM,62.1,48.9,62,30.32,10.0,NW,8.1,-,N/A,,Overcast,320,2012-11-13 13:53:00
8:53 AM,64.0,52.0,65,30.33,10.0,NNW,9.2,-,N/A,,Overcast,330,2012-11-13 14:53:00
9:53 AM,64.9,54.0,68,30.35,10.0,NNW,6.9,-,N/A,,Overcast,330,2012-11-13 15:53:00
10:53 AM,68.0,55.9,65,30.32,10.0,NNW,6.9,-,N/A,,Overcast,330,2012-11-13 16:53:00
11:53 AM,71.1,57.0,61,30.30,10.0,NNE,12.7,19.6,N/A,,Overcast,20,2012-11-13 17:53:00
12:53 PM,72.0,55.9,57,30.27,10.0,NNE,16.1,20.7,N/A,,Overcast,20,2012-11-13 18:53:00
1:53 PM,71.1,55.9,59,30.25,10.0,NNE,16.1,20.7,N/A,,Overcast,30,2012-11-13 19:53:00
2:53 PM,72.0,55.9,57,30.22,10.0,NE,15.0,-,N/A,,Overcast,50,2012-11-13 20:53:00
3:53 PM,71.1,55.9,59,30.20,10.0,NNE,15.0,19.6,N/A,,Overcast,20,2012-11-13 21:53:00
4:53 PM,70.0,55.0,59,30.22,10.0,NNE,15.0,20.7,N/A,,Overcast,30,2012-11-13 22:53:00
5:53 PM,69.1,57.0,65,30.22,10.0,NNE,10.4,18.4,N/A,,Overcast,30,2012-11-13 23:53:00
6:53 PM,69.1,57.0,65,30.22,10.0,NE,10.4,-,N/A,,Overcast,40,2012-11-14 00:53:00
7:53 PM,69.1,57.0,65,30.25,10.0,NE,9.2,-,N/A,,Overcast,40,2012-11-14 01:53:00
8:53 PM,66.0,59.0,78,30.24,10.0,NE,6.9,-,0.00,,Mostly Cloudy,50,2012-11-14 02:53:00
9:53 PM,66.9,57.9,73,30.25,10.0,NE,8.1,-,N/A,,Overcast,50,2012-11-14 03:53:00
10:53 PM,66.9,59.0,76,30.26,10.0,North,5.8,-,0.00,,Overcast,10,2012-11-14 04:53:00
11:53 PM,66.9,60.1,79,30.25,10.0,Calm,Calm,-,0.00,,Overcast,0,2012-11-14 05:53:00